Time;durP1;ratioP1;P1;durP2;ratioP2;P2;SDS_P1;SDS_P2;PMS_P1;PMS_P2;Temp;Humidity;BMP_temperature;BMP_pressure;BME280_temperature;BME280_humidity;BME280_pressure;Samples;Min_cycle;Max_cycle;Signal;HPM_P1;HPM_P2
2022/01/15 00:01:41;;;;;;;8.60;6.23;;;2.70;1.00;;;;;;5087388;28;20436;-74
2022/01/15 00:04:07;;;;;;;9.27;6.47;;;2.70;1.00;;;;;;5073180;28;20739;-74
2022/01/15 00:06:33;;;;;;;19.67;6.77;;;2.70;1.00;;;;;;5085348;28;20179;-74
2022/01/15 00:08:58;;;;;;;12.10;5.70;;;2.80;1.00;;;;;;5092470;28;20189;-75
2022/01/15 00:11:24;;;;;;;9.97;4.27;;;2.80;1.00;;;;;;5081366;28;20448;-75
2022/01/15 00:13:57;;;;;;;11.83;6.33;;;2.70;1.00;;;;;;5073079;28;20170;-76
2022/01/15 00:16:33;;;;;;;9.73;3.13;;;2.70;1.00;;;;;;5073093;28;20523;-75
2022/01/15 00:19:08;;;;;;;6.20;4.13;;;2.60;1.00;;;;;;5092328;28;20461;-74
2022/01/15 00:21:34;;;;;;;12.93;5.00;;;2.60;1.00;;;;;;5073322;28;20443;-75
2022/01/15 00:24:00;;;;;;;17.03;3.87;;;2.70;1.00;;;;;;5073027;28;20789;-74
2022/01/15 00:26:26;;;;;;;8.53;4.10;;;2.70;1.00;;;;;;5088947;28;20415;-76
2022/01/15 00:28:51;;;;;;;5.97;3.77;;;2.60;1.00;;;;;;5092120;28;20173;-75
2022/01/15 00:31:17;;;;;;;16.33;5.00;;;2.60;1.00;;;;;;5076222;28;20674;-74
2022/01/15 00:33:42;;;;;;;10.23;4.20;;;2.50;1.00;;;;;;5054897;28;20181;-76
2022/01/15 00:36:08;;;;;;;9.03;4.80;;;2.60;1.00;;;;;;5086631;28;20584;-76
2022/01/15 00:38:34;;;;;;;12.37;3.40;;;2.60;1.00;;;;;;5091993;28;20539;-75
2022/01/15 00:40:59;;;;;;;14.67;4.43;;;2.60;1.00;;;;;;5079847;28;20225;-74
2022/01/15 00:43:25;;;;;;;12.47;4.00;;;2.60;1.00;;;;;;5073022;28;20204;-75
2022/01/15 00:45:51;;;;;;;8.00;3.97;;;2.60;1.00;;;;;;5083584;28;20173;-74
2022/01/15 00:48:16;;;;;;;10.23;3.47;;;2.60;1.00;;;;;;5092921;28;20165;-74
2022/01/15 00:50:42;;;;;;;8.50;3.70;;;2.60;1.00;;;;;;5082368;28;20206;-75
2022/01/15 00:53:08;;;;;;;17.13;5.20;;;2.60;1.00;;;;;;5072551;28;20181;-74
2022/01/15 00:55:34;;;;;;;13.00;4.20;;;2.50;1.00;;;;;;5082909;28;20991;-74
2022/01/15 00:58:00;;;;;;;4.33;3.57;;;2.50;1.00;;;;;;5092671;28;20455;-74
2022/01/15 01:00:26;;;;;;;6.50;3.40;;;2.50;1.00;;;;;;5081911;28;20198;-74
2022/01/15 01:02:52;;;;;;;7.37;3.60;;;2.50;1.00;;;;;;5072275;28;20185;-74
2022/01/15 01:05:20;;;;;;;14.33;4.57;;;2.50;1.00;;;;;;5080068;28;20411;-75
2022/01/15 01:07:46;;;;;;;12.10;4.57;;;2.50;1.00;;;;;;5092669;28;20880;-76
2022/01/15 01:21:23;;;;;;;16.17;3.83;;;2.40;1.00;;;;;;5077119;28;20959;-74
2022/01/15 01:23:48;;;;;;;8.03;3.50;;;2.40;1.00;;;;;;5072964;28;20509;-74
2022/01/15 01:26:41;;;;;;;3.70;3.27;;;2.40;1.00;;;;;;5093164;28;20419;-74
2022/01/15 01:31:41;;;;;;;11.10;3.90;;;2.40;1.00;;;;;;5076002;28;20519;-75
2022/01/15 01:34:12;;;;;;;18.70;4.20;;;2.40;1.00;;;;;;5075036;28;20938;-74
2022/01/15 01:36:50;;;;;;;6.00;2.73;;;2.30;1.00;;;;;;5094987;28;20504;-74
2022/01/15 01:39:20;;;;;;;9.90;3.03;;;2.30;1.00;;;;;;5094797;28;20446;-75
2022/01/15 01:42:05;;;;;;;10.43;3.40;;;2.30;1.00;;;;;;5075647;28;21000;-75
2022/01/15 01:44:38;;;;;;;14.07;3.20;;;2.30;1.00;;;;;;5076117;28;20458;-75
2022/01/15 01:47:07;;;;;;;3.83;3.23;;;2.40;1.00;;;;;;5095918;28;20402;-75
2022/01/15 01:49:33;;;;;;;9.13;2.80;;;2.30;1.00;;;;;;5094120;28;20454;-75
2022/01/15 01:51:58;;;;;;;6.60;2.67;;;2.40;1.00;;;;;;5074795;28;20952;-75
2022/01/15 01:54:24;;;;;;;10.97;3.33;;;2.30;1.00;;;;;;5075227;28;20232;-74
2022/01/15 01:56:50;;;;;;;12.50;3.37;;;2.30;1.00;;;;;;5094092;28;20282;-74
2022/01/15 01:59:16;;;;;;;12.50;3.83;;;2.40;1.00;;;;;;5094486;28;20281;-74
2022/01/15 02:01:43;;;;;;;11.30;3.80;;;2.40;1.00;;;;;;5077643;28;20194;-74
2022/01/15 02:04:09;;;;;;;9.47;2.73;;;2.40;1.00;;;;;;5077910;28;20552;-75
2022/01/15 02:06:38;;;;;;;17.80;4.00;;;2.40;1.00;;;;;;5095230;28;20474;-75
2022/01/15 02:09:07;;;;;;;5.60;3.67;;;2.40;1.00;;;;;;5092646;28;20181;-76
2022/01/15 02:11:33;;;;;;;5.30;3.40;;;2.40;1.00;;;;;;5082990;28;20439;-75
2022/01/15 02:13:59;;;;;;;3.20;2.87;;;2.30;1.00;;;;;;5095229;28;20402;-74
2022/01/15 02:16:25;;;;;;;6.23;2.37;;;2.30;1.00;;;;;;5095171;28;20248;-76
2022/01/15 02:18:54;;;;;;;9.87;3.30;;;2.30;1.00;;;;;;5075229;28;20555;-74
2022/01/15 02:23:50;;;;;;;12.03;3.10;;;2.20;1.00;;;;;;5092577;28;20422;-76
2022/01/15 02:26:20;;;;;;;10.97;4.03;;;2.20;1.00;;;;;;5095054;28;20166;-74
2022/01/15 02:28:59;;;;;;;4.77;2.70;;;2.20;1.00;;;;;;5075716;28;20416;-75
2022/01/15 02:31:27;;;;;;;12.13;3.67;;;2.20;1.00;;;;;;5073986;28;20428;-74
2022/01/15 02:33:55;;;;;;;7.10;3.10;;;2.20;1.00;;;;;;5092745;28;20429;-74
2022/01/15 02:36:26;;;;;;;3.77;2.30;;;2.20;1.00;;;;;;5094576;28;20411;-75
2022/01/15 02:38:52;;;;;;;10.13;3.10;;;2.20;1.00;;;;;;5058009;28;20867;-74
2022/01/15 02:41:31;;;;;;;11.50;3.10;;;2.20;1.00;;;;;;5074371;28;20423;-74
2022/01/15 02:43:58;;;;;;;15.47;3.37;;;2.20;1.00;;;;;;5092015;28;20439;-74
2022/01/15 02:49:02;;;;;;;15.90;4.07;;;2.30;1.00;;;;;;5076365;28;20904;-76
2022/01/15 02:51:32;;;;;;;2.90;2.57;;;2.30;1.00;;;;;;5074209;28;20424;-75
2022/01/15 02:53:58;;;;;;;3.73;3.30;;;2.20;1.00;;;;;;5090682;28;20447;-74
2022/01/15 02:56:27;;;;;;;10.67;3.60;;;2.10;1.00;;;;;;5094621;28;20411;-74
2022/01/15 02:58:53;;;;;;;7.83;2.77;;;2.20;1.00;;;;;;5077680;28;20460;-74
2022/01/15 03:01:19;;;;;;;15.93;5.40;;;2.20;1.00;;;;;;5073884;28;20971;-74
2022/01/15 03:03:45;;;;;;;34.50;9.30;;;2.20;1.00;;;;;;5075046;28;20448;-76
2022/01/15 03:06:16;;;;;;;11.03;3.60;;;2.30;1.00;;;;;;5073737;28;20166;-74
2022/01/15 03:08:43;;;;;;;9.73;2.70;;;2.30;1.00;;;;;;5085061;28;20454;-74
2022/01/15 03:11:10;;;;;;;6.00;2.63;;;2.30;1.00;;;;;;5094005;28;20931;-75
2022/01/15 03:13:37;;;;;;;12.90;2.47;;;2.40;1.00;;;;;;5082479;28;20427;-75
2022/01/15 03:16:04;;;;;;;16.60;3.83;;;2.30;1.00;;;;;;5055744;28;20897;-75
2022/01/15 03:18:30;;;;;;;7.80;3.13;;;2.40;1.00;;;;;;5082784;28;20455;-78
2022/01/15 03:20:55;;;;;;;20.77;2.50;;;2.40;1.00;;;;;;5093928;28;20927;-74
2022/01/15 03:23:21;;;;;;;7.90;2.50;;;2.50;1.00;;;;;;5081507;28;20171;-75
2022/01/15 03:25:46;;;;;;;13.17;4.43;;;2.50;1.00;;;;;;5072768;28;20170;-74
2022/01/15 03:28:12;;;;;;;10.53;2.33;;;2.50;1.00;;;;;;5083794;28;20181;-75
2022/01/15 03:30:38;;;;;;;7.80;3.00;;;2.60;1.00;;;;;;5092708;28;20731;-75
2022/01/15 03:33:05;;;;;;;9.20;3.97;;;2.60;1.00;;;;;;5084915;28;20269;-76
2022/01/15 03:35:30;;;;;;;13.63;4.57;;;2.70;1.00;;;;;;5073642;28;20413;-75
2022/01/15 03:37:56;;;;;;;5.03;2.20;;;2.70;1.00;;;;;;5083444;28;20797;-74
2022/01/15 03:40:22;;;;;;;6.90;3.73;;;2.70;1.00;;;;;;5092591;28;20191;-76
2022/01/15 03:42:47;;;;;;;7.53;2.93;;;2.80;1.00;;;;;;5084223;28;20220;-74
2022/01/15 03:45:14;;;;;;;6.63;2.97;;;2.80;1.00;;;;;;5072841;28;20587;-75
2022/01/15 03:47:41;;;;;;;13.80;4.93;;;2.80;1.00;;;;;;5079643;28;20640;-75
2022/01/15 03:50:08;;;;;;;9.87;3.70;;;2.80;1.00;;;;;;5092527;28;20420;-74
2022/01/15 03:52:34;;;;;;;5.90;2.80;;;2.70;1.00;;;;;;5087205;28;20424;-75
2022/01/15 03:55:00;;;;;;;7.87;3.10;;;2.80;1.00;;;;;;5073380;28;20401;-74
2022/01/15 03:57:26;;;;;;;9.80;3.10;;;2.80;1.00;;;;;;5077185;28;20420;-75
2022/01/15 03:59:52;;;;;;;19.00;4.00;;;2.80;1.00;;;;;;5092213;28;20456;-74
2022/01/15 04:02:18;;;;;;;5.27;3.37;;;2.80;1.00;;;;;;5090950;28;20898;-74
2022/01/15 04:04:43;;;;;;;11.90;3.20;;;2.80;1.00;;;;;;5092770;28;20177;-73
2022/01/15 04:07:09;;;;;;;6.70;3.10;;;2.80;1.00;;;;;;5090604;28;20431;-75
2022/01/15 04:09:35;;;;;;;10.83;3.03;;;2.90;1.00;;;;;;5072245;28;20208;-74
2022/01/15 04:12:00;;;;;;;5.43;2.83;;;2.90;1.00;;;;;;5073234;28;20236;-74
2022/01/15 04:14:26;;;;;;;9.63;4.40;;;3.00;1.00;;;;;;5093086;28;20400;-77
2022/01/15 04:16:52;;;;;;;8.67;3.30;;;3.00;1.00;;;;;;5093132;28;20526;-76
2022/01/15 04:19:17;;;;;;;6.30;2.80;;;3.00;1.00;;;;;;5072650;28;20268;-74
2022/01/15 04:21:43;;;;;;;6.83;2.30;;;3.00;1.00;;;;;;5072547;28;20208;-76
2022/01/15 04:24:09;;;;;;;17.27;4.73;;;3.00;1.00;;;;;;5089792;28;20173;-75
2022/01/15 04:26:34;;;;;;;4.80;3.23;;;3.00;1.00;;;;;;5092876;28;20213;-76
2022/01/15 04:29:05;;;;;;;7.07;1.83;;;3.00;1.00;;;;;;5076236;28;20661;-74
2022/01/15 04:32:04;;;;;;;3.97;3.00;;;3.00;1.00;;;;;;5072803;28;20210;-75
2022/01/15 04:34:28;;;;;;;3.93;1.90;;;3.00;1.00;;;;;;5087644;28;20419;-74
2022/01/15 04:37:12;;;;;;;3.43;2.50;;;3.10;1.00;;;;;;5092043;28;20457;-76
2022/01/15 04:39:37;;;;;;;3.70;2.70;;;3.10;1.00;;;;;;5071094;28;20460;-74
2022/01/15 04:42:03;;;;;;;5.67;2.93;;;3.10;1.00;;;;;;5074023;28;20420;-74
2022/01/15 04:44:29;;;;;;;10.70;3.20;;;3.10;1.00;;;;;;5092772;28;20166;-75
2022/01/15 04:46:55;;;;;;;6.97;2.70;;;3.00;1.00;;;;;;5092614;28;20756;-75
2022/01/15 04:49:20;;;;;;;15.63;2.80;;;3.00;1.00;;;;;;5071909;28;20511;-76
2022/01/15 04:51:46;;;;;;;11.43;3.10;;;3.00;1.00;;;;;;5074052;28;20722;-76
2022/01/15 04:54:12;;;;;;;5.90;2.40;;;3.10;1.00;;;;;;5092620;28;20625;-75
2022/01/15 04:56:38;;;;;;;10.60;4.00;;;3.10;1.00;;;;;;5092491;28;20166;-75
2022/01/15 04:59:03;;;;;;;7.70;2.90;;;3.00;1.00;;;;;;5073898;28;20236;-76
2022/01/15 05:01:29;;;;;;;6.00;2.80;;;3.10;1.00;;;;;;5076265;28;20186;-74
2022/01/15 05:03:54;;;;;;;14.40;2.77;;;3.10;1.00;;;;;;5094689;28;20167;-74
2022/01/15 05:06:20;;;;;;;11.23;3.50;;;3.10;1.00;;;;;;5096594;28;20565;-74
2022/01/15 05:08:47;;;;;;;8.83;2.77;;;3.10;1.00;;;;;;5078299;28;20189;-75
2022/01/15 05:11:28;;;;;;;12.90;3.70;;;3.10;1.00;;;;;;5076004;28;20269;-76
2022/01/15 05:13:53;;;;;;;6.37;3.00;;;3.00;1.00;;;;;;5077385;28;20782;-74
2022/01/15 05:16:19;;;;;;;5.43;2.60;;;3.00;1.00;;;;;;5075959;28;20401;-75
2022/01/15 05:18:44;;;;;;;9.20;3.80;;;3.00;1.00;;;;;;5090142;28;20189;-75
2022/01/15 05:21:10;;;;;;;14.33;2.57;;;3.00;1.00;;;;;;5096134;28;20268;-74
2022/01/15 05:23:36;;;;;;;7.37;2.93;;;3.00;1.00;;;;;;5082406;28;20236;-75
2022/01/15 05:26:01;;;;;;;17.70;2.90;;;3.00;1.00;;;;;;5076077;28;20167;-74
2022/01/15 05:28:27;;;;;;;4.67;2.90;;;3.00;1.00;;;;;;5087356;28;20181;-75
2022/01/15 05:30:53;;;;;;;5.13;2.30;;;3.00;1.00;;;;;;5077121;28;20694;-75
2022/01/15 05:33:18;;;;;;;6.20;3.00;;;3.00;1.00;;;;;;5085606;28;20182;-76
2022/01/15 05:35:44;;;;;;;7.03;2.60;;;3.00;1.00;;;;;;5075524;28;20530;-75
2022/01/15 05:38:10;;;;;;;6.40;3.20;;;3.00;1.00;;;;;;5083223;28;20276;-75
2022/01/15 05:40:35;;;;;;;8.03;3.47;;;3.00;1.00;;;;;;5095032;28;20200;-75
2022/01/15 05:43:01;;;;;;;11.03;4.83;;;3.00;1.00;;;;;;5089230;28;20623;-75
2022/01/15 05:45:28;;;;;;;11.80;3.07;;;2.90;1.00;;;;;;5075423;28;20166;-75
2022/01/15 05:47:54;;;;;;;7.03;2.77;;;3.00;1.00;;;;;;5080430;28;20211;-74
2022/01/15 05:50:20;;;;;;;16.83;3.33;;;3.00;1.00;;;;;;5094729;28;20993;-74
2022/01/15 05:52:45;;;;;;;10.80;3.13;;;3.00;1.00;;;;;;5088401;28;20175;-75
2022/01/15 05:55:11;;;;;;;6.53;2.43;;;3.00;1.00;;;;;;5075184;28;20896;-75
2022/01/15 05:57:37;;;;;;;13.20;2.53;;;2.90;1.00;;;;;;5079885;28;20185;-74
2022/01/15 06:00:06;;;;;;;2.70;2.20;;;2.90;1.00;;;;;;5094453;28;20459;-75
2022/01/15 06:02:32;;;;;;;6.47;2.77;;;2.90;1.00;;;;;;5081165;28;20185;-74
2022/01/15 06:04:57;;;;;;;4.17;2.63;;;2.80;1.00;;;;;;5075264;28;20405;-75
2022/01/15 06:07:23;;;;;;;6.83;2.53;;;2.80;1.00;;;;;;5087050;28;20227;-74
2022/01/15 06:09:49;;;;;;;3.47;2.90;;;2.70;1.00;;;;;;5093764;28;20298;-76
2022/01/15 06:12:14;;;;;;;4.53;2.73;;;2.60;1.00;;;;;;5084082;28;20183;-75
2022/01/15 06:14:40;;;;;;;7.90;2.87;;;2.60;1.00;;;;;;5074811;28;20189;-75
2022/01/15 06:17:08;;;;;;;9.10;2.43;;;2.50;1.00;;;;;;5061556;28;20188;-75
2022/01/15 06:19:35;;;;;;;3.40;2.40;;;2.50;1.00;;;;;;5093965;28;20247;-75
2022/01/15 06:22:01;;;;;;;5.40;2.83;;;2.50;1.00;;;;;;5095004;28;20426;-75
2022/01/15 06:24:26;;;;;;;8.90;3.23;;;2.50;1.00;;;;;;5076174;28;20852;-75
2022/01/15 06:26:52;;;;;;;4.00;2.70;;;2.50;1.00;;;;;;5095273;28;20522;-75
2022/01/15 06:29:19;;;;;;;8.37;4.17;;;2.50;1.00;;;;;;5089136;28;20631;-74
2022/01/15 06:31:45;;;;;;;5.67;2.90;;;2.50;1.00;;;;;;5086182;28;20190;-75
2022/01/15 06:34:10;;;;;;;4.43;2.83;;;2.50;1.00;;;;;;5093756;28;20453;-74
2022/01/15 06:36:36;;;;;;;5.53;2.77;;;2.40;1.00;;;;;;5094024;28;20181;-74
2022/01/15 06:39:02;;;;;;;9.60;3.73;;;2.40;1.00;;;;;;5073535;28;20205;-76
2022/01/15 06:41:27;;;;;;;26.30;5.80;;;2.40;1.00;;;;;;5074285;28;20269;-75
2022/01/15 06:43:53;;;;;;;4.20;3.00;;;2.40;1.00;;;;;;5074270;28;20173;-74
2022/01/15 06:46:19;;;;;;;8.30;3.77;;;2.40;1.00;;;;;;5074445;28;20634;-73
2022/01/15 06:48:44;;;;;;;4.33;2.40;;;2.30;1.00;;;;;;5055277;28;20185;-74
2022/01/15 06:51:10;;;;;;;7.50;2.53;;;2.30;1.00;;;;;;5073480;28;20190;-75
2022/01/15 06:53:35;;;;;;;12.93;3.63;;;2.20;1.00;;;;;;5074127;28;20656;-75
2022/01/15 06:56:01;;;;;;;11.20;2.67;;;2.20;1.00;;;;;;5073991;28;20651;-74
2022/01/15 06:58:27;;;;;;;4.97;2.30;;;2.20;1.00;;;;;;5073744;28;20186;-76
2022/01/15 07:00:52;;;;;;;11.70;2.57;;;2.20;1.00;;;;;;5073237;28;20186;-75
2022/01/15 07:03:18;;;;;;;6.17;3.50;;;2.10;1.00;;;;;;5073939;28;20227;-76
2022/01/15 07:05:43;;;;;;;6.40;3.13;;;2.10;1.00;;;;;;5073879;28;20288;-75
2022/01/15 07:08:09;;;;;;;7.83;3.60;;;2.10;1.00;;;;;;5086653;28;20188;-74
2022/01/15 07:10:39;;;;;;;5.73;2.63;;;2.10;1.00;;;;;;5090433;28;20570;-74
2022/01/15 07:13:06;;;;;;;7.47;3.40;;;2.10;1.00;;;;;;5093054;28;20165;-74
2022/01/15 07:15:32;;;;;;;7.60;2.50;;;2.10;1.00;;;;;;5073613;28;20409;-75
2022/01/15 07:17:59;;;;;;;4.40;2.00;;;2.10;1.00;;;;;;5085291;28;20423;-74
2022/01/15 07:20:25;;;;;;;3.60;2.43;;;2.10;1.00;;;;;;5074620;28;20841;-75
2022/01/15 07:22:51;;;;;;;2.63;2.43;;;2.10;1.00;;;;;;5082329;28;20469;-75
2022/01/15 07:25:16;;;;;;;6.53;2.50;;;2.10;1.00;;;;;;5073437;28;20491;-74
2022/01/15 07:27:43;;;;;;;4.63;2.77;;;2.10;1.00;;;;;;5081707;28;20539;-74
2022/01/15 07:30:11;;;;;;;7.00;4.30;;;2.10;1.00;;;;;;5080937;28;20220;-74
2022/01/15 07:32:37;;;;;;;8.97;3.63;;;2.10;1.00;;;;;;5071778;28;20459;-73
2022/01/15 07:35:04;;;;;;;9.13;3.27;;;2.20;1.00;;;;;;5093686;28;20396;-75
2022/01/15 07:37:31;;;;;;;3.33;2.07;;;2.20;1.00;;;;;;5091916;28;20416;-74
2022/01/15 07:39:58;;;;;;;5.10;3.33;;;2.20;1.00;;;;;;5089038;28;20464;-74
2022/01/15 07:42:23;;;;;;;8.83;2.20;;;2.20;1.00;;;;;;5055222;28;20939;-75
2022/01/15 07:44:49;;;;;;;9.60;3.40;;;2.20;1.00;;;;;;5073740;28;20396;-74
2022/01/15 07:47:15;;;;;;;2.33;2.00;;;2.20;1.00;;;;;;5093000;28;20220;-75
2022/01/15 07:49:40;;;;;;;5.83;3.00;;;2.20;1.00;;;;;;5091460;28;20173;-75
2022/01/15 07:52:06;;;;;;;4.63;3.00;;;2.20;1.00;;;;;;5093365;28;20178;-75
2022/01/15 07:54:32;;;;;;;6.00;3.10;;;2.30;1.00;;;;;;5073914;28;20614;-73
2022/01/15 07:56:58;;;;;;;3.63;2.60;;;2.30;1.00;;;;;;5093567;28;20653;-74
2022/01/15 07:59:30;;;;;;;8.77;3.20;;;2.30;1.00;;;;;;5091660;28;20185;-73
2022/01/15 08:01:55;;;;;;;15.00;5.03;;;2.30;1.00;;;;;;5091648;28;20427;-73
2022/01/15 08:04:21;;;;;;;6.57;3.97;;;2.30;1.00;;;;;;5090586;28;20888;-75
2022/01/15 08:06:47;;;;;;;3.73;2.23;;;2.30;1.00;;;;;;5091888;28;20638;-74
2022/01/15 08:09:12;;;;;;;7.93;3.10;;;2.30;1.00;;;;;;5091588;28;20205;-73
2022/01/15 08:11:38;;;;;;;8.50;3.27;;;2.40;1.00;;;;;;5089195;28;20201;-74
2022/01/15 08:14:03;;;;;;;10.33;3.87;;;2.40;1.00;;;;;;5093161;28;20630;-74
2022/01/15 08:16:29;;;;;;;9.93;3.57;;;2.40;1.00;;;;;;5093054;28;20307;-73
2022/01/15 08:18:55;;;;;;;8.50;3.30;;;2.40;1.00;;;;;;5074301;28;20201;-74
2022/01/15 08:21:21;;;;;;;9.17;4.07;;;2.50;1.00;;;;;;5092964;28;20188;-73
2022/01/15 08:23:46;;;;;;;13.00;4.07;;;2.50;1.00;;;;;;5092152;28;20224;-74
2022/01/15 08:26:12;;;;;;;9.40;4.10;;;2.50;1.00;;;;;;5089999;28;20188;-74
2022/01/15 08:28:38;;;;;;;9.90;5.03;;;2.50;1.00;;;;;;5071659;28;20594;-75
2022/01/15 08:31:05;;;;;;;4.20;3.60;;;2.50;1.00;;;;;;5072820;28;20190;-74
2022/01/15 08:33:31;;;;;;;10.37;5.30;;;2.50;1.00;;;;;;5074865;28;20178;-73
2022/01/15 08:35:57;;;;;;;7.40;4.33;;;2.50;1.00;;;;;;5076835;28;20419;-73
2022/01/15 08:38:22;;;;;;;13.93;5.70;;;2.50;1.00;;;;;;5076592;28;20444;-74
2022/01/15 08:40:48;;;;;;;16.03;4.17;;;2.50;1.00;;;;;;5075441;28;20976;-74
2022/01/15 08:43:14;;;;;;;9.07;3.50;;;2.50;1.00;;;;;;5076360;28;20650;-73
2022/01/15 08:45:40;;;;;;;5.03;2.97;;;2.50;1.00;;;;;;5076736;28;20407;-74
2022/01/15 08:48:07;;;;;;;8.27;4.43;;;2.60;1.00;;;;;;5076582;28;20166;-74
2022/01/15 08:50:33;;;;;;;18.47;3.80;;;2.60;1.00;;;;;;5075633;28;20652;-75
2022/01/15 08:52:59;;;;;;;4.57;3.87;;;2.70;1.00;;;;;;5076494;28;20803;-73
2022/01/15 08:55:29;;;;;;;14.10;5.40;;;2.70;1.00;;;;;;5076462;28;20479;-73
2022/01/15 08:57:55;;;;;;;12.10;3.53;;;2.70;1.00;;;;;;5076209;28;20162;-73
2022/01/15 09:00:21;;;;;;;3.90;3.27;;;2.80;1.00;;;;;;5075368;28;20535;-74
2022/01/15 09:02:48;;;;;;;7.30;4.30;;;2.80;1.00;;;;;;5075752;28;20872;-73
2022/01/15 09:05:14;;;;;;;7.07;3.47;;;2.80;1.00;;;;;;5076050;28;20170;-73
2022/01/15 09:07:41;;;;;;;20.63;4.47;;;2.90;1.00;;;;;;5076331;28;20468;-74
2022/01/15 09:10:07;;;;;;;7.57;4.40;;;2.90;1.00;;;;;;5057510;28;20892;-74
2022/01/15 09:12:34;;;;;;;11.60;5.17;;;2.90;1.00;;;;;;5075845;28;20408;-75
2022/01/15 09:14:59;;;;;;;12.93;4.43;;;3.00;1.00;;;;;;5075997;28;20420;-73
2022/01/15 09:17:26;;;;;;;12.47;6.23;;;2.90;1.00;;;;;;5076066;28;20747;-75
2022/01/15 09:19:52;;;;;;;6.87;4.57;;;3.00;1.00;;;;;;5074487;28;20193;-74
2022/01/15 09:22:17;;;;;;;8.40;3.70;;;3.00;1.00;;;;;;5075710;28;20506;-73
2022/01/15 09:24:45;;;;;;;7.03;3.50;;;3.00;1.00;;;;;;5075752;28;20824;-73
2022/01/15 09:30:15;;;;;;;8.77;4.47;;;3.10;1.00;;;;;;5074755;28;20407;-75
2022/01/15 09:32:45;;;;;;;8.57;5.37;;;3.20;1.00;;;;;;5075690;28;20405;-73
2022/01/15 09:35:12;;;;;;;8.20;4.23;;;3.30;1.00;;;;;;5075543;28;20925;-75
2022/01/15 09:37:37;;;;;;;10.10;5.20;;;3.30;1.00;;;;;;5057150;28;20416;-73
2022/01/15 09:40:04;;;;;;;11.03;4.77;;;3.40;1.00;;;;;;5074598;28;20455;-73
2022/01/15 09:42:30;;;;;;;14.33;5.90;;;3.40;1.00;;;;;;5075532;28;20174;-73
2022/01/15 09:44:56;;;;;;;14.47;4.70;;;3.50;1.00;;;;;;5074534;28;20400;-73
2022/01/15 09:47:22;;;;;;;11.53;3.20;;;3.50;1.00;;;;;;5057510;28;20756;-79
2022/01/15 09:49:50;;;;;;;15.17;4.23;;;3.60;1.00;;;;;;5074405;28;20410;-71
2022/01/15 09:52:17;;;;;;;11.90;3.60;;;3.70;1.00;;;;;;5057678;28;20455;-70
2022/01/15 09:54:43;;;;;;;9.13;3.90;;;3.80;1.00;;;;;;5057375;28;20413;-76
2022/01/15 09:57:08;;;;;;;21.93;5.03;;;3.90;1.00;;;;;;5074528;28;20507;-75
2022/01/15 09:59:34;;;;;;;5.57;3.60;;;4.00;1.00;;;;;;5074360;28;20547;-75
2022/01/15 10:02:03;;;;;;;24.83;8.60;;;4.10;1.00;;;;;;5075160;28;20639;-73
2022/01/15 10:04:32;;;;;;;11.77;4.90;;;4.10;1.00;;;;;;5074772;28;20498;-72
2022/01/15 10:07:22;;;;;;;15.33;4.37;;;4.20;1.00;;;;;;5075064;28;20394;-75
2022/01/15 10:09:50;;;;;;;5.37;3.03;;;4.30;1.00;;;;;;5074158;28;20808;-75
2022/01/15 10:12:31;;;;;;;19.57;3.40;;;4.20;1.00;;;;;;5074860;28;20399;-75
2022/01/15 10:15:05;;;;;;;8.40;4.27;;;4.30;1.00;;;;;;5074587;28;20443;-73
2022/01/15 10:17:33;;;;;;;4.10;2.80;;;4.40;1.00;;;;;;5074865;28;20411;-75
2022/01/15 10:20:05;;;;;;;4.13;2.63;;;4.50;1.00;;;;;;5055976;28;20462;-72
2022/01/15 10:22:34;;;;;;;9.30;5.57;;;4.50;1.00;;;;;;5074843;28;20485;-73
2022/01/15 10:25:03;;;;;;;10.17;4.00;;;4.60;1.00;;;;;;5074760;28;20435;-73
2022/01/15 10:27:31;;;;;;;10.23;3.80;;;4.70;1.00;;;;;;5074531;28;20399;-76
2022/01/15 10:30:03;;;;;;;16.70;4.57;;;4.70;1.00;;;;;;5073792;28;20401;-72
2022/01/15 10:32:31;;;;;;;10.20;2.90;;;4.80;1.00;;;;;;5074116;28;20494;-73
2022/01/15 10:34:58;;;;;;;4.53;3.60;;;4.90;99.90;;;;;;5074720;28;20799;-73
2022/01/15 10:37:37;;;;;;;11.63;3.90;;;5.00;99.90;;;;;;5074604;28;20425;-73
2022/01/15 10:40:08;;;;;;;5.40;4.30;;;5.10;99.90;;;;;;5073460;28;20460;-73
2022/01/15 10:42:35;;;;;;;9.60;3.60;;;5.20;99.90;;;;;;5080931;28;20872;-74
2022/01/15 10:45:12;;;;;;;13.50;3.60;;;5.30;99.90;;;;;;5102988;28;20404;-72
2022/01/15 10:47:48;;;;;;;10.80;4.43;;;5.30;99.90;;;;;;5083821;28;20473;-73
2022/01/15 10:50:30;;;;;;;9.23;2.87;;;5.30;99.90;;;;;;5079152;28;20426;-73
2022/01/15 10:52:57;;;;;;;3.27;2.97;;;5.50;99.90;;;;;;5098925;28;20429;-73
2022/01/15 10:55:28;;;;;;;7.50;2.83;;;5.40;99.90;;;;;;5073922;28;20401;-73
2022/01/15 10:58:05;;;;;;;8.43;2.73;;;5.40;99.90;;;;;;5074084;28;20423;-76
2022/01/15 11:00:38;;;;;;;5.73;3.33;;;5.40;99.90;;;;;;5073004;28;20428;-73
2022/01/15 11:03:12;;;;;;;12.63;4.77;;;5.50;99.90;;;;;;5056248;28;20971;-76
2022/01/15 11:05:40;;;;;;;11.67;3.90;;;5.50;99.90;;;;;;5073925;28;20881;-73
2022/01/15 11:08:18;;;;;;;15.93;4.40;;;5.50;99.90;;;;;;5073564;28;20443;-75
2022/01/15 11:10:53;;;;;;;2.67;2.37;;;5.60;99.90;;;;;;5072679;28;20450;-75
2022/01/15 11:13:22;;;;;;;21.07;5.13;;;5.50;99.90;;;;;;5073890;28;20492;-77
2022/01/15 11:15:50;;;;;;;8.43;3.90;;;5.60;99.90;;;;;;5073700;28;20411;-75
2022/01/15 11:18:24;;;;;;;15.30;3.00;;;5.70;99.90;;;;;;5073584;28;20793;-77
2022/01/15 11:20:52;;;;;;;9.33;3.00;;;5.60;99.90;;;;;;5072828;28;20467;-77
2022/01/15 11:23:21;;;;;;;20.27;4.07;;;5.60;99.90;;;;;;5073693;28;20450;-75
2022/01/15 11:25:47;;;;;;;17.07;3.97;;;5.70;99.90;;;;;;5073400;28;20401;-78
2022/01/15 11:28:13;;;;;;;4.90;3.73;;;5.70;99.90;;;;;;5072887;28;20399;-73
2022/01/15 11:30:41;;;;;;;11.23;3.87;;;5.70;99.90;;;;;;5054644;28;20437;-78
2022/01/15 11:33:07;;;;;;;10.93;3.47;;;5.70;99.90;;;;;;5073449;28;20408;-78
2022/01/15 11:35:40;;;;;;;4.10;2.70;;;5.70;99.90;;;;;;5073421;28;20888;-76
2022/01/15 11:38:06;;;;;;;9.03;3.00;;;5.70;99.90;;;;;;5073004;28;20400;-76
2022/01/15 11:40:37;;;;;;;7.23;3.43;;;5.70;99.90;;;;;;5054413;28;20428;-78
2022/01/15 11:43:25;;;;;;;3.93;3.00;;;5.80;99.90;;;;;;5055376;28;20504;-75
2022/01/15 11:45:52;;;;;;;4.73;3.50;;;5.80;99.90;;;;;;5054962;28;20424;-77
2022/01/15 11:48:26;;;;;;;8.83;3.30;;;5.70;99.90;;;;;;5073164;28;20423;-79
2022/01/15 11:51:14;;;;;;;9.77;2.50;;;5.80;99.90;;;;;;5072336;28;20824;-77
2022/01/15 11:53:49;;;;;;;8.53;3.13;;;5.90;99.90;;;;;;5073127;28;20408;-78
2022/01/15 11:56:16;;;;;;;5.70;2.87;;;6.00;99.90;;;;;;5073113;28;20469;-79
2022/01/15 11:58:41;;;;;;;10.53;2.57;;;6.10;99.90;;;;;;5072202;28;20445;-78
2022/01/15 12:01:07;;;;;;;11.00;2.90;;;6.20;99.90;;;;;;5072353;28;20427;-76
2022/01/15 12:03:39;;;;;;;15.27;2.87;;;6.20;99.90;;;;;;5073113;28;20622;-79
2022/01/15 12:06:05;;;;;;;8.87;2.87;;;6.30;99.90;;;;;;5072901;28;20166;-77
2022/01/15 12:08:32;;;;;;;5.77;2.40;;;6.30;99.90;;;;;;5053587;28;20502;-80
2022/01/15 12:11:00;;;;;;;8.30;3.00;;;6.30;99.90;;;;;;5072925;28;20224;-78
2022/01/15 12:13:29;;;;;;;5.53;3.50;;;6.40;99.90;;;;;;5072851;28;20405;-79
2022/01/15 12:16:27;;;;;;;15.70;5.13;;;6.40;99.90;;;;;;5073126;28;20496;-76
2022/01/15 12:18:57;;;;;;;10.80;3.70;;;6.50;99.90;;;;;;5071962;28;20481;-78
2022/01/15 12:21:42;;;;;;;15.20;3.10;;;6.40;99.90;;;;;;5072203;28;20420;-77
2022/01/15 12:24:34;;;;;;;9.37;4.43;;;6.40;99.90;;;;;;5072734;28;20392;-79
2022/01/15 12:27:00;;;;;;;8.50;3.63;;;6.30;99.90;;;;;;5072849;28;20470;-79
2022/01/15 12:29:26;;;;;;;8.37;3.30;;;6.30;99.90;;;;;;5071933;28;20411;-76
2022/01/15 12:31:52;;;;;;;16.17;3.67;;;6.30;99.90;;;;;;5072927;28;20534;-76
2022/01/15 12:34:25;;;;;;;16.83;4.10;;;6.40;99.90;;;;;;5072628;28;20181;-76
2022/01/15 12:36:50;;;;;;;8.93;2.90;;;6.50;99.90;;;;;;5072820;28;20167;-76
2022/01/15 12:39:32;;;;;;;15.27;3.07;;;6.40;99.90;;;;;;5071614;28;20467;-79
2022/01/15 12:41:58;;;;;;;11.00;3.23;;;6.50;99.90;;;;;;5072334;28;20185;-79
2022/01/15 12:44:24;;;;;;;6.70;3.70;;;6.50;99.90;;;;;;5072587;28;20899;-79
2022/01/15 12:46:59;;;;;;;13.03;3.60;;;6.50;99.90;;;;;;5072534;28;20315;-80
2022/01/15 12:49:43;;;;;;;9.47;3.47;;;6.60;99.90;;;;;;5053853;28;20261;-76
2022/01/15 12:52:12;;;;;;;9.17;2.93;;;6.50;99.90;;;;;;5072466;28;20415;-76
2022/01/15 12:54:37;;;;;;;10.43;3.90;;;6.60;99.90;;;;;;5072514;28;20447;-80
2022/01/15 12:57:04;;;;;;;8.73;2.53;;;6.60;99.90;;;;;;5054368;28;20448;-76
2022/01/15 12:59:29;;;;;;;11.57;2.77;;;6.60;99.90;;;;;;5071018;28;20205;-76
2022/01/15 13:01:55;;;;;;;20.93;2.90;;;6.50;99.90;;;;;;5072535;28;20420;-79
2022/01/15 13:04:20;;;;;;;8.17;3.57;;;6.50;99.90;;;;;;5072477;28;20171;-78
2022/01/15 13:06:50;;;;;;;5.73;2.67;;;6.60;99.90;;;;;;5072320;28;20259;-76
2022/01/15 13:09:16;;;;;;;8.60;3.17;;;6.60;99.90;;;;;;5071621;28;20219;-75
2022/01/15 13:11:48;;;;;;;6.97;2.40;;;6.60;99.90;;;;;;5072309;28;20431;-80
2022/01/15 13:14:14;;;;;;;6.70;3.13;;;6.60;99.90;;;;;;5072357;28;20400;-79
2022/01/15 13:16:40;;;;;;;10.40;3.53;;;6.70;99.90;;;;;;5072002;28;20896;-79
2022/01/15 13:19:07;;;;;;;11.50;3.80;;;6.80;99.90;;;;;;5054431;28;20476;-75
2022/01/15 13:21:37;;;;;;;11.43;4.67;;;6.90;99.90;;;;;;5057946;28;20213;-77
2022/01/15 13:24:10;;;;;;;7.93;4.03;;;6.80;99.90;;;;;;5075927;28;20907;-79
2022/01/15 13:26:41;;;;;;;5.00;2.83;;;6.80;99.90;;;;;;5075823;28;20412;-78